Time;durP1;ratioP1;P1;durP2;ratioP2;P2;SDS_P1;SDS_P2;PMS_P1;PMS_P2;Temp;Humidity;BMP_temperature;BMP_pressure;BME280_temperature;BME280_humidity;BME280_pressure;Samples;Min_cycle;Max_cycle;Signal;HPM_P1;HPM_P2
2022/03/13 00:00:04;;;;;;;7.97;6.43;;;7.70;62.10;;;;;;5075874;28;21007;-54
2022/03/13 00:02:29;;;;;;;7.32;6.03;;;7.60;62.20;;;;;;5092956;28;20455;-52
2022/03/13 00:04:56;;;;;;;8.50;6.10;;;7.60;62.70;;;;;;5074270;28;20424;-52
2022/03/13 00:07:25;;;;;;;8.63;6.60;;;7.60;62.70;;;;;;5075443;28;20781;-55
2022/03/13 00:09:51;;;;;;;8.70;6.30;;;7.50;62.60;;;;;;5075157;28;20385;-53
2022/03/13 00:12:29;;;;;;;12.38;6.65;;;7.40;62.60;;;;;;5075809;28;20428;-57
2022/03/13 00:14:56;;;;;;;8.40;6.47;;;7.40;62.90;;;;;;5075005;28;20389;-53
2022/03/13 00:17:27;;;;;;;10.07;6.18;;;7.40;63.40;;;;;;5076360;28;20397;-52
2022/03/13 00:19:57;;;;;;;7.50;5.90;;;7.40;63.50;;;;;;5075465;28;20394;-52
2022/03/13 00:22:22;;;;;;;8.63;5.80;;;7.30;63.70;;;;;;5076080;28;20418;-55
2022/03/13 00:24:48;;;;;;;7.83;6.30;;;7.30;63.50;;;;;;5087620;28;20445;-49
2022/03/13 00:27:13;;;;;;;7.47;6.45;;;7.20;63.70;;;;;;5068943;28;20382;-54
2022/03/13 00:29:40;;;;;;;8.77;6.20;;;7.20;63.90;;;;;;5069982;28;20691;-50
2022/03/13 00:32:07;;;;;;;9.23;6.43;;;7.20;63.90;;;;;;5068247;28;20802;-54
2022/03/13 00:34:33;;;;;;;7.30;6.28;;;7.10;64.20;;;;;;5068693;28;20480;-52
2022/03/13 00:36:59;;;;;;;7.30;6.15;;;7.10;64.30;;;;;;5068326;28;20640;-51
2022/03/13 00:39:26;;;;;;;7.82;6.43;;;7.10;64.60;;;;;;5068219;28;20499;-51
2022/03/13 00:41:51;;;;;;;7.97;6.20;;;7.10;64.80;;;;;;5085052;28;20378;-54
2022/03/13 00:44:17;;;;;;;8.77;6.50;;;7.10;64.90;;;;;;5069531;28;20535;-53
2022/03/13 00:46:43;;;;;;;8.33;6.07;;;7.10;64.80;;;;;;5069247;28;20390;-53
2022/03/13 00:49:09;;;;;;;8.18;6.38;;;7.00;64.50;;;;;;5069537;28;20417;-53
2022/03/13 00:51:35;;;;;;;8.77;6.60;;;7.00;64.90;;;;;;5086637;28;20378;-56
2022/03/13 00:54:00;;;;;;;9.83;6.67;;;6.90;65.30;;;;;;5068527;28;20498;-54
2022/03/13 00:56:26;;;;;;;8.70;6.20;;;6.90;65.10;;;;;;5088364;28;20634;-55
2022/03/13 00:58:52;;;;;;;8.80;6.57;;;6.80;64.80;;;;;;5069170;28;20428;-55
2022/03/13 01:01:18;;;;;;;9.70;6.73;;;6.80;65.00;;;;;;5084377;28;20776;-53
2022/03/13 01:03:43;;;;;;;8.17;6.47;;;6.80;65.10;;;;;;5067870;28;20697;-52
2022/03/13 01:06:09;;;;;;;8.18;6.60;;;6.80;65.30;;;;;;5068575;28;20378;-53
2022/03/13 01:08:35;;;;;;;8.73;6.43;;;6.70;65.50;;;;;;5070019;28;20491;-52
2022/03/13 01:11:02;;;;;;;8.45;6.35;;;6.70;65.50;;;;;;5069481;28;20388;-55
2022/03/13 01:13:29;;;;;;;8.20;6.75;;;6.70;65.30;;;;;;5068303;28;20531;-54
2022/03/13 01:16:13;;;;;;;8.93;6.47;;;6.80;65.60;;;;;;5067537;28;20405;-51
2022/03/13 01:19:04;;;;;;;10.05;7.10;;;6.70;65.50;;;;;;5087504;28;20541;-54
2022/03/13 01:21:32;;;;;;;11.52;7.28;;;6.70;65.50;;;;;;5083607;28;20366;-52
2022/03/13 01:24:04;;;;;;;8.77;7.20;;;6.70;65.50;;;;;;5069722;28;20397;-56
2022/03/13 01:26:34;;;;;;;9.63;6.93;;;6.60;64.90;;;;;;5071526;28;20382;-52
2022/03/13 01:29:00;;;;;;;9.65;7.25;;;6.60;65.30;;;;;;5090456;28;20705;-50
2022/03/13 01:31:27;;;;;;;9.30;7.15;;;6.60;65.50;;;;;;5073746;28;20398;-52
2022/03/13 01:33:53;;;;;;;9.00;7.18;;;6.50;65.60;;;;;;5072681;28;20390;-52
2022/03/13 01:36:19;;;;;;;11.45;7.05;;;6.50;65.80;;;;;;5068818;28;20449;-56
2022/03/13 01:38:45;;;;;;;9.13;7.40;;;6.50;66.10;;;;;;5067498;28;20477;-55
2022/03/13 01:41:11;;;;;;;8.80;7.00;;;6.40;66.00;;;;;;5066771;28;20641;-52
2022/03/13 01:43:37;;;;;;;8.50;6.97;;;6.40;66.30;;;;;;5065278;28;20390;-56
2022/03/13 01:46:04;;;;;;;10.60;7.10;;;6.30;66.00;;;;;;5066901;28;20394;-53
2022/03/13 01:48:37;;;;;;;9.18;7.05;;;6.30;66.30;;;;;;5068164;28;20382;-52
2022/03/13 01:51:02;;;;;;;8.90;7.15;;;6.30;66.60;;;;;;5067994;28;20374;-51
2022/03/13 01:53:28;;;;;;;9.60;6.97;;;6.30;67.30;;;;;;5068588;28;20413;-56
2022/03/13 01:55:57;;;;;;;10.90;7.28;;;6.30;67.70;;;;;;5069885;28;20613;-55
2022/03/13 01:58:24;;;;;;;8.75;6.68;;;6.30;67.60;;;;;;5071059;28;20386;-55
2022/03/13 02:00:50;;;;;;;10.00;7.22;;;6.30;68.00;;;;;;5073011;28;20406;-57
2022/03/13 02:03:17;;;;;;;9.97;7.00;;;6.30;67.60;;;;;;5090414;28;20816;-56
2022/03/13 02:05:43;;;;;;;8.50;6.35;;;6.20;67.60;;;;;;5071447;28;20394;-52
2022/03/13 02:08:16;;;;;;;7.93;6.63;;;6.20;67.40;;;;;;5073551;28;20459;-56
2022/03/13 02:10:42;;;;;;;8.77;6.70;;;6.10;67.40;;;;;;5071771;28;20378;-55
2022/03/13 02:13:10;;;;;;;8.97;6.83;;;6.10;67.20;;;;;;5089134;28;20386;-54
2022/03/13 02:15:37;;;;;;;8.27;6.70;;;6.10;67.10;;;;;;5071658;28;20413;-54
2022/03/13 02:18:04;;;;;;;8.68;6.47;;;6.00;66.80;;;;;;5069376;28;20378;-54
2022/03/13 02:20:29;;;;;;;7.82;6.55;;;6.00;67.30;;;;;;5072237;28;20866;-59
2022/03/13 02:23:00;;;;;;;9.10;6.80;;;6.00;66.80;;;;;;5072231;28;20452;-50
2022/03/13 02:25:31;;;;;;;8.90;6.63;;;6.00;67.60;;;;;;5062597;28;20409;-54
2022/03/13 02:27:58;;;;;;;8.07;6.70;;;6.00;67.90;;;;;;5072325;28;20891;-56
2022/03/13 02:30:25;;;;;;;7.72;6.50;;;5.90;67.80;;;;;;5072601;28;20913;-55
2022/03/13 02:32:52;;;;;;;8.65;6.50;;;5.90;68.30;;;;;;5088928;28;20477;-54
2022/03/13 02:35:18;;;;;;;10.90;7.32;;;5.90;68.50;;;;;;5071936;28;20679;-53
2022/03/13 02:37:43;;;;;;;10.20;6.78;;;5.90;68.30;;;;;;5073701;28;20382;-55
2022/03/13 02:40:24;;;;;;;7.50;6.20;;;5.90;68.70;;;;;;5073853;28;20382;-53
2022/03/13 02:42:57;;;;;;;9.38;6.45;;;5.80;68.90;;;;;;5090103;28;20382;-57
2022/03/13 02:45:29;;;;;;;10.02;7.25;;;5.80;68.90;;;;;;5088126;28;20408;-57
2022/03/13 02:47:56;;;;;;;7.63;6.10;;;5.80;69.50;;;;;;5071953;28;20457;-52
2022/03/13 02:50:22;;;;;;;10.45;6.90;;;5.70;69.50;;;;;;5073142;28;20455;-55
2022/03/13 02:52:48;;;;;;;10.32;7.10;;;5.60;69.40;;;;;;5090103;28;20390;-53
2022/03/13 02:55:15;;;;;;;8.83;7.37;;;5.60;70.00;;;;;;5071310;28;21247;-55
2022/03/13 02:57:41;;;;;;;9.00;7.00;;;5.60;69.50;;;;;;5072727;28;20420;-55
2022/03/13 03:00:08;;;;;;;9.67;7.10;;;5.60;69.40;;;;;;5090384;28;20769;-56
2022/03/13 03:02:34;;;;;;;10.18;7.15;;;5.60;69.90;;;;;;5071592;28;20385;-54
2022/03/13 03:05:05;;;;;;;9.25;7.18;;;5.60;70.00;;;;;;5072528;28;20398;-55
2022/03/13 03:07:30;;;;;;;9.95;7.13;;;5.50;69.60;;;;;;5068755;28;20651;-58
2022/03/13 03:09:57;;;;;;;10.13;7.47;;;5.60;69.90;;;;;;5077356;28;20982;-53
2022/03/13 03:12:22;;;;;;;10.20;7.47;;;5.50;69.80;;;;;;5077246;28;20386;-54
2022/03/13 03:14:48;;;;;;;9.80;7.40;;;5.50;70.10;;;;;;5076595;28;20397;-53
2022/03/13 03:17:13;;;;;;;11.03;7.43;;;5.40;70.30;;;;;;5076683;28;20422;-52
2022/03/13 03:19:39;;;;;;;12.60;8.10;;;5.40;70.50;;;;;;5075894;28;20394;-54
2022/03/13 03:22:05;;;;;;;8.97;7.33;;;5.40;70.50;;;;;;5076271;28;20476;-56
2022/03/13 03:24:31;;;;;;;12.30;7.78;;;5.30;70.70;;;;;;5076162;28;20807;-55
2022/03/13 03:26:57;;;;;;;10.00;7.30;;;5.30;70.90;;;;;;5093708;28;20374;-57
2022/03/13 03:29:26;;;;;;;11.50;7.60;;;5.30;70.80;;;;;;5092939;28;20401;-52
2022/03/13 03:31:54;;;;;;;11.95;7.88;;;5.30;70.90;;;;;;5074249;28;20685;-57
2022/03/13 03:34:22;;;;;;;11.20;7.90;;;5.20;71.00;;;;;;5091524;28;20459;-52
2022/03/13 03:36:50;;;;;;;10.05;7.93;;;5.20;71.10;;;;;;5074301;28;20624;-54
2022/03/13 03:39:17;;;;;;;11.15;7.90;;;5.20;71.30;;;;;;5075043;28;20374;-55
2022/03/13 03:41:45;;;;;;;10.85;8.05;;;5.20;71.60;;;;;;5073816;28;20631;-56
2022/03/13 03:44:11;;;;;;;10.55;8.35;;;5.20;71.60;;;;;;5074529;28;20507;-53
2022/03/13 03:46:37;;;;;;;11.77;8.50;;;5.10;71.80;;;;;;5088990;28;20673;-53
2022/03/13 03:49:03;;;;;;;10.65;7.60;;;5.10;72.00;;;;;;5073161;28;20672;-55
2022/03/13 03:51:29;;;;;;;11.80;7.75;;;5.10;71.70;;;;;;5075352;28;20495;-52
2022/03/13 03:53:54;;;;;;;10.50;7.93;;;5.10;72.20;;;;;;5075741;28;20694;-55
2022/03/13 03:56:20;;;;;;;12.30;8.98;;;5.00;72.40;;;;;;5074581;28;20825;-51
2022/03/13 03:58:45;;;;;;;11.13;7.87;;;5.00;72.30;;;;;;5075061;28;20378;-55
2022/03/13 04:01:11;;;;;;;10.87;8.20;;;4.90;72.40;;;;;;5076916;28;20386;-54
2022/03/13 04:03:36;;;;;;;10.87;8.43;;;5.00;72.80;;;;;;5076883;28;20393;-53
2022/03/13 04:06:02;;;;;;;10.25;8.00;;;4.90;72.80;;;;;;5077167;28;20778;-52
2022/03/13 04:08:29;;;;;;;11.10;8.40;;;4.90;72.80;;;;;;5074903;28;20393;-57
2022/03/13 04:10:55;;;;;;;12.13;8.77;;;4.90;72.80;;;;;;5076230;28;20386;-51
2022/03/13 04:13:20;;;;;;;11.30;8.30;;;4.90;72.60;;;;;;5093161;28;20616;-54
2022/03/13 04:15:46;;;;;;;11.20;8.70;;;4.90;73.00;;;;;;5091552;28;20431;-58
2022/03/13 04:18:14;;;;;;;11.83;8.10;;;4.80;73.30;;;;;;5071841;28;20393;-56
2022/03/13 04:20:39;;;;;;;12.80;8.23;;;4.80;73.50;;;;;;5072116;28;20444;-56
2022/03/13 04:23:05;;;;;;;12.88;8.40;;;4.70;73.60;;;;;;5090144;28;20386;-53
2022/03/13 04:25:31;;;;;;;11.40;8.23;;;4.70;73.80;;;;;;5086673;28;20430;-57
2022/03/13 04:27:58;;;;;;;12.13;8.60;;;4.70;73.70;;;;;;5069807;28;20538;-53
2022/03/13 04:30:25;;;;;;;12.45;7.95;;;4.60;73.50;;;;;;5091608;28;20404;-54
2022/03/13 04:32:50;;;;;;;11.85;8.77;;;4.60;73.70;;;;;;5073976;28;20727;-55
2022/03/13 04:35:16;;;;;;;9.45;7.82;;;4.60;73.50;;;;;;5073721;28;20926;-53
2022/03/13 04:37:42;;;;;;;10.23;8.10;;;4.60;73.60;;;;;;5072416;28;20393;-53
2022/03/13 04:40:10;;;;;;;11.07;8.32;;;4.60;73.50;;;;;;5073589;28;20485;-52
2022/03/13 04:42:35;;;;;;;11.57;8.60;;;4.60;73.80;;;;;;5089989;28;20417;-54
2022/03/13 04:45:02;;;;;;;13.13;8.88;;;4.60;73.80;;;;;;5089028;28;20504;-52
2022/03/13 04:47:31;;;;;;;11.10;8.57;;;4.50;73.90;;;;;;5070438;28;20594;-54
2022/03/13 04:49:57;;;;;;;13.52;8.20;;;4.50;74.10;;;;;;5072321;28;20826;-56
2022/03/13 04:52:22;;;;;;;14.50;9.20;;;4.50;73.90;;;;;;5072671;28;20390;-55
2022/03/13 04:54:48;;;;;;;12.63;8.37;;;4.40;73.90;;;;;;5072268;28;20817;-56
2022/03/13 04:57:14;;;;;;;11.32;8.23;;;4.40;74.00;;;;;;5071099;28;20394;-51
2022/03/13 04:59:39;;;;;;;11.80;8.25;;;4.40;74.30;;;;;;5070604;28;20412;-54
2022/03/13 05:02:05;;;;;;;12.88;8.68;;;4.30;74.30;;;;;;5069800;28;20394;-57
2022/03/13 05:04:32;;;;;;;11.73;8.13;;;4.30;74.30;;;;;;5070244;28;20398;-55
2022/03/13 05:06:58;;;;;;;12.00;8.75;;;4.30;74.50;;;;;;5070193;28;20401;-56
2022/03/13 05:09:24;;;;;;;10.73;7.95;;;4.30;74.60;;;;;;5085863;28;20370;-55
2022/03/13 05:11:50;;;;;;;10.10;8.20;;;4.30;74.40;;;;;;5066899;28;20447;-57
2022/03/13 05:14:15;;;;;;;10.37;8.50;;;4.20;74.80;;;;;;5085588;28;20393;-53
2022/03/13 05:16:41;;;;;;;9.93;8.05;;;4.20;74.70;;;;;;5084478;28;20381;-52
2022/03/13 05:19:07;;;;;;;12.47;8.73;;;4.20;74.50;;;;;;5066395;28;20405;-52
2022/03/13 05:21:34;;;;;;;11.88;8.38;;;4.20;74.60;;;;;;5067823;28;20439;-56
2022/03/13 05:24:00;;;;;;;12.27;8.40;;;4.10;74.40;;;;;;5086768;28;20896;-52
2022/03/13 05:26:26;;;;;;;11.07;8.57;;;4.10;74.20;;;;;;5068650;28;20410;-56
2022/03/13 05:28:51;;;;;;;9.93;7.93;;;4.10;74.40;;;;;;5069395;28;20377;-54
2022/03/13 05:31:17;;;;;;;13.98;8.90;;;4.10;75.00;;;;;;5088362;28;20394;-54
2022/03/13 05:33:42;;;;;;;11.37;8.03;;;4.10;75.10;;;;;;5089878;28;20670;-52
2022/03/13 05:36:08;;;;;;;10.13;7.93;;;4.10;75.30;;;;;;5089433;28;20502;-56
2022/03/13 05:38:35;;;;;;;10.37;8.00;;;4.10;75.90;;;;;;5070196;28;20443;-54
2022/03/13 05:41:05;;;;;;;11.05;7.93;;;4.00;75.30;;;;;;5070334;28;20373;-56
2022/03/13 05:43:32;;;;;;;10.88;8.45;;;4.10;75.50;;;;;;5061765;28;20687;-58
2022/03/13 05:45:58;;;;;;;10.93;8.13;;;4.00;75.20;;;;;;5070363;28;20825;-55
2022/03/13 05:48:25;;;;;;;10.93;7.90;;;4.00;75.50;;;;;;5088020;28;20397;-55
2022/03/13 05:50:51;;;;;;;12.70;8.70;;;4.00;75.30;;;;;;5071355;28;20678;-57
2022/03/13 05:53:17;;;;;;;10.47;8.20;;;4.00;75.50;;;;;;5071447;28;20806;-57
2022/03/13 05:55:43;;;;;;;11.20;8.40;;;3.90;75.50;;;;;;5071009;28;20378;-56
2022/03/13 05:58:08;;;;;;;10.17;8.10;;;3.90;75.70;;;;;;5070628;28;20756;-54
2022/03/13 06:00:34;;;;;;;11.07;7.90;;;3.90;75.70;;;;;;5068581;28;20405;-52
2022/03/13 06:03:01;;;;;;;12.48;8.57;;;3.90;75.20;;;;;;5069114;28;20389;-50
2022/03/13 06:05:27;;;;;;;11.23;8.43;;;3.80;75.40;;;;;;5069042;28;20675;-52
2022/03/13 06:07:53;;;;;;;9.85;8.52;;;3.90;76.10;;;;;;5067831;28;20667;-56
2022/03/13 06:10:18;;;;;;;10.07;7.60;;;3.90;75.90;;;;;;5069233;28;20972;-52
2022/03/13 06:12:44;;;;;;;11.60;8.20;;;3.80;75.30;;;;;;5068751;28;20375;-56
2022/03/13 06:15:11;;;;;;;9.88;7.78;;;3.80;75.10;;;;;;5070972;28;20472;-56
2022/03/13 06:17:46;;;;;;;9.85;7.80;;;3.80;75.00;;;;;;5071790;28;20747;-53
2022/03/13 06:20:13;;;;;;;9.30;7.47;;;3.80;75.10;;;;;;5071596;28;20390;-54
2022/03/13 06:22:42;;;;;;;11.60;8.05;;;3.90;75.50;;;;;;5070806;28;20385;-53
2022/03/13 06:25:09;;;;;;;11.30;7.90;;;3.90;75.20;;;;;;5088854;28;20467;-53
2022/03/13 06:27:36;;;;;;;10.27;8.35;;;3.90;75.00;;;;;;5088371;28;20665;-57
2022/03/13 06:30:08;;;;;;;10.23;8.38;;;3.90;75.30;;;;;;5089500;28;20369;-55
2022/03/13 06:32:34;;;;;;;11.43;8.57;;;3.90;74.80;;;;;;5069705;28;20654;-55
2022/03/13 06:35:00;;;;;;;9.77;7.67;;;3.90;74.60;;;;;;5068797;28;20582;-56
2022/03/13 06:37:25;;;;;;;11.43;7.70;;;3.90;74.70;;;;;;5069290;28;20537;-52
2022/03/13 06:39:51;;;;;;;11.80;8.60;;;4.00;74.80;;;;;;5089570;28;20418;-55
2022/03/13 06:42:17;;;;;;;11.25;7.38;;;4.00;74.70;;;;;;5073647;28;20867;-56
2022/03/13 06:44:42;;;;;;;11.07;8.03;;;4.00;75.00;;;;;;5073308;28;20492;-53
2022/03/13 06:47:08;;;;;;;10.38;7.30;;;4.00;74.40;;;;;;5072207;28;20390;-52
2022/03/13 06:49:34;;;;;;;10.63;7.30;;;4.00;74.40;;;;;;5072780;28;20441;-52
2022/03/13 06:51:59;;;;;;;12.27;7.60;;;4.00;74.40;;;;;;5072484;28;20389;-53
2022/03/13 06:54:24;;;;;;;10.27;7.50;;;4.00;74.10;;;;;;5091579;28;20421;-53
2022/03/13 06:56:50;;;;;;;9.60;7.53;;;4.00;73.80;;;;;;5091188;28;20389;-53
2022/03/13 06:59:16;;;;;;;11.20;7.70;;;4.10;73.90;;;;;;5069983;28;20480;-55
2022/03/13 07:01:41;;;;;;;9.30;6.90;;;4.10;73.40;;;;;;5070112;28;20398;-57
2022/03/13 07:04:07;;;;;;;10.33;7.53;;;4.20;73.20;;;;;;5072239;28;20398;-57
2022/03/13 07:06:33;;;;;;;8.93;7.07;;;4.20;72.80;;;;;;5072167;28;20651;-54
2022/03/13 07:08:59;;;;;;;10.93;7.80;;;4.20;72.90;;;;;;5089412;28;20663;-55
2022/03/13 07:11:26;;;;;;;10.85;7.47;;;4.20;72.60;;;;;;5071015;28;20373;-54
2022/03/13 07:13:52;;;;;;;9.95;7.50;;;4.20;72.40;;;;;;5072297;28;20382;-55
2022/03/13 07:16:19;;;;;;;9.23;6.90;;;4.20;72.10;;;;;;5070538;28;20393;-52
2022/03/13 07:18:45;;;;;;;10.07;7.25;;;4.20;72.80;;;;;;5071944;28;20414;-54
2022/03/13 07:21:12;;;;;;;9.65;7.22;;;4.30;72.70;;;;;;5069818;28;20425;-53
2022/03/13 07:23:38;;;;;;;10.60;7.38;;;4.30;72.80;;;;;;5070539;28;20565;-55
2022/03/13 07:26:04;;;;;;;9.70;7.22;;;4.40;72.50;;;;;;5072286;28;20402;-57
2022/03/13 07:28:29;;;;;;;9.98;7.32;;;4.40;71.60;;;;;;5089937;28;20382;-53
2022/03/13 07:30:55;;;;;;;10.70;7.68;;;4.40;71.70;;;;;;5070655;28;20492;-53
2022/03/13 07:33:21;;;;;;;8.38;7.15;;;4.40;71.70;;;;;;5069019;28;20834;-54
2022/03/13 07:35:46;;;;;;;8.90;6.90;;;4.50;71.00;;;;;;5069538;28;20394;-52
2022/03/13 07:38:12;;;;;;;9.00;6.93;;;4.50;71.20;;;;;;5087765;28;20386;-58
2022/03/13 07:40:38;;;;;;;9.85;7.18;;;4.50;70.10;;;;;;5064480;28;20386;-57
2022/03/13 07:43:04;;;;;;;9.40;7.25;;;4.50;70.10;;;;;;5063236;28;20392;-55
2022/03/13 07:45:30;;;;;;;10.57;7.30;;;4.50;70.20;;;;;;5064426;28;20406;-57
2022/03/13 07:47:57;;;;;;;8.98;7.15;;;4.60;70.50;;;;;;5083520;28;20465;-55
2022/03/13 07:50:24;;;;;;;10.02;7.15;;;4.60;70.10;;;;;;5067380;28;20388;-53
2022/03/13 07:52:50;;;;;;;9.83;7.30;;;4.60;70.40;;;;;;5063968;28;20743;-53
2022/03/13 07:55:16;;;;;;;8.35;7.07;;;4.70;70.50;;;;;;5065187;28;20386;-57
2022/03/13 07:57:42;;;;;;;8.70;6.90;;;4.70;70.10;;;;;;5066162;28;20398;-52
2022/03/13 08:00:10;;;;;;;9.07;6.85;;;4.80;70.50;;;;;;5064558;28;20401;-56
2022/03/13 08:02:36;;;;;;;9.35;6.95;;;4.80;70.90;;;;;;5084026;28;20626;-55
2022/03/13 08:05:02;;;;;;;9.27;7.10;;;4.80;70.30;;;;;;5084880;28;20690;-55
2022/03/13 08:07:27;;;;;;;10.32;7.20;;;4.80;70.00;;;;;;5084992;28;20377;-56
2022/03/13 08:09:53;;;;;;;9.68;7.10;;;4.80;69.50;;;;;;5070072;28;20386;-54
2022/03/13 08:12:19;;;;;;;9.35;6.40;;;4.90;70.10;;;;;;5070734;28;20445;-54
2022/03/13 08:14:45;;;;;;;10.27;6.80;;;4.90;69.50;;;;;;5069721;28;20412;-55
2022/03/13 08:17:11;;;;;;;10.60;6.78;;;5.00;69.70;;;;;;5067967;28;20516;-53
2022/03/13 08:19:37;;;;;;;9.32;6.85;;;5.00;69.00;;;;;;5069343;28;20402;-57
2022/03/13 08:22:02;;;;;;;8.85;6.63;;;5.00;69.10;;;;;;5066809;28;20413;-54
2022/03/13 08:24:28;;;;;;;9.80;6.82;;;5.10;69.30;;;;;;5084558;28;20760;-52
2022/03/13 08:26:54;;;;;;;9.57;7.10;;;5.10;68.80;;;;;;5068163;28;20418;-55
2022/03/13 08:29:19;;;;;;;9.50;7.53;;;5.10;68.90;;;;;;5088479;28;20390;-54
2022/03/13 08:31:45;;;;;;;9.20;6.90;;;5.20;69.00;;;;;;5068855;28;20676;-55
2022/03/13 08:34:10;;;;;;;8.90;6.95;;;5.20;68.90;;;;;;5069160;28;20386;-55
2022/03/13 08:36:43;;;;;;;10.32;7.22;;;5.20;68.00;;;;;;5087178;28;20678;-52
2022/03/13 08:39:09;;;;;;;10.50;7.60;;;5.20;68.50;;;;;;5069934;28;20893;-54
2022/03/13 08:41:35;;;;;;;10.02;7.07;;;5.40;69.00;;;;;;5067704;28;20827;-54
2022/03/13 08:44:01;;;;;;;8.40;6.73;;;5.40;69.40;;;;;;5064151;28;20476;-55
2022/03/13 08:46:26;;;;;;;8.70;6.67;;;5.40;69.80;;;;;;5066881;28;20535;-54
2022/03/13 08:48:52;;;;;;;9.30;6.57;;;5.50;69.40;;;;;;5067450;28;20398;-54
2022/03/13 08:51:19;;;;;;;12.30;7.20;;;5.50;69.20;;;;;;5067307;28;20381;-55
2022/03/13 08:53:45;;;;;;;10.20;6.88;;;5.60;69.10;;;;;;5065374;28;20428;-50
2022/03/13 08:56:13;;;;;;;7.90;6.75;;;5.60;68.80;;;;;;5066513;28;20382;-54
2022/03/13 08:58:40;;;;;;;8.90;6.60;;;5.60;69.00;;;;;;5066505;28;20378;-52
2022/03/13 09:01:05;;;;;;;9.23;6.97;;;5.70;69.10;;;;;;5063912;28;20688;-54
2022/03/13 09:03:31;;;;;;;11.87;6.80;;;5.80;69.50;;;;;;5065546;28;20401;-55
2022/03/13 09:05:57;;;;;;;8.20;6.68;;;5.90;69.50;;;;;;5082591;28;20398;-56
2022/03/13 09:08:22;;;;;;;16.25;6.78;;;5.90;68.10;;;;;;5065158;28;20475;-54
2022/03/13 09:10:48;;;;;;;10.37;7.20;;;5.90;68.10;;;;;;5066610;28;20390;-55
2022/03/13 09:13:14;;;;;;;9.20;6.37;;;5.90;68.00;;;;;;5066123;28;20417;-57
2022/03/13 09:15:39;;;;;;;7.90;6.13;;;6.00;67.60;;;;;;5084530;28;20397;-56
2022/03/13 09:18:06;;;;;;;10.27;7.17;;;6.00;67.60;;;;;;5066891;28;20382;-54
2022/03/13 09:20:31;;;;;;;10.17;6.40;;;6.00;66.50;;;;;;5068797;28;20382;-55
2022/03/13 09:22:57;;;;;;;7.00;6.27;;;6.00;66.10;;;;;;5085854;28;20739;-56
2022/03/13 09:25:23;;;;;;;8.88;6.20;;;6.10;67.00;;;;;;5066765;28;20648;-54
2022/03/13 09:27:49;;;;;;;11.30;7.10;;;6.20;68.70;;;;;;5066776;28;20378;-57
2022/03/13 09:30:15;;;;;;;9.88;6.80;;;6.30;71.30;;;;;;5064607;28;20378;-56
2022/03/13 09:32:42;;;;;;;10.02;6.93;;;6.40;67.10;;;;;;5082870;28;20874;-55
2022/03/13 09:35:08;;;;;;;8.93;6.77;;;6.30;65.90;;;;;;5065231;28;20471;-58
2022/03/13 09:37:33;;;;;;;8.10;6.63;;;6.30;66.00;;;;;;5064637;28;20389;-56
2022/03/13 09:39:59;;;;;;;8.55;6.47;;;6.30;65.70;;;;;;5067309;28;20565;-56
2022/03/13 09:42:24;;;;;;;9.10;6.37;;;6.50;65.90;;;;;;5066557;28;20390;-55
2022/03/13 09:44:50;;;;;;;9.47;6.73;;;6.40;64.90;;;;;;5068179;28;20879;-55
2022/03/13 09:47:16;;;;;;;9.68;6.50;;;6.50;65.30;;;;;;5069334;28;20409;-52
2022/03/13 09:49:42;;;;;;;10.07;7.03;;;6.60;65.90;;;;;;5067092;28;20785;-54
2022/03/13 09:52:08;;;;;;;9.52;6.63;;;6.70;66.00;;;;;;5067713;28;20500;-55
2022/03/13 09:54:34;;;;;;;8.93;6.82;;;6.80;65.10;;;;;;5067536;28;20510;-56
2022/03/13 09:57:04;;;;;;;8.40;6.57;;;6.90;64.40;;;;;;5066674;28;20389;-53
2022/03/13 09:59:31;;;;;;;9.25;6.78;;;7.00;64.20;;;;;;5067589;28;20621;-55
2022/03/13 10:01:57;;;;;;;7.40;6.03;;;6.90;63.40;;;;;;5068907;28;20405;-54
2022/03/13 10:04:22;;;;;;;7.20;5.97;;;7.00;64.30;;;;;;5068082;28;20413;-56
2022/03/13 10:07:04;;;;;;;8.77;6.33;;;7.10;64.40;;;;;;5067185;28;20382;-57
2022/03/13 10:09:30;;;;;;;8.10;6.10;;;7.10;62.90;;;;;;5083155;28;20375;-55
2022/03/13 10:12:25;;;;;;;7.93;6.47;;;7.20;63.50;;;;;;5066242;28;20453;-54
2022/03/13 10:15:04;;;;;;;7.55;6.15;;;7.30;63.50;;;;;;5050422;28;20638;-55
2022/03/13 10:17:33;;;;;;;7.83;6.17;;;7.30;63.50;;;;;;5072047;28;21080;-56
2022/03/13 10:20:16;;;;;;;7.38;5.88;;;7.40;63.50;;;;;;5073296;28;20619;-51
2022/03/13 10:22:50;;;;;;;9.40;6.40;;;7.50;63.60;;;;;;5073325;28;20382;-57
2022/03/13 10:25:49;;;;;;;9.55;6.00;;;7.50;63.50;;;;;;5074624;28;20401;-54
2022/03/13 10:28:25;;;;;;;7.95;6.30;;;7.60;63.00;;;;;;5028196;28;20417;-56
2022/03/13 10:31:00;;;;;;;7.95;6.10;;;7.70;63.50;;;;;;5087680;28;20404;-57
2022/03/13 10:33:42;;;;;;;6.90;5.55;;;7.70;62.40;;;;;;5088772;28;20390;-53
2022/03/13 10:36:12;;;;;;;7.75;5.78;;;7.90;70.30;;;;;;5071412;28;20476;-56
2022/03/13 10:38:38;;;;;;;8.65;6.40;;;8.10;69.00;;;;;;5068862;28;20422;-54
2022/03/13 10:41:08;;;;;;;10.52;6.30;;;8.20;63.40;;;;;;5088273;28;20396;-53
2022/03/13 10:43:34;;;;;;;8.27;6.50;;;8.30;60.90;;;;;;5088361;28;20817;-55
2022/03/13 10:46:01;;;;;;;7.93;6.03;;;8.70;61.20;;;;;;5087529;28;20406;-56
2022/03/13 10:48:30;;;;;;;8.63;6.20;;;9.00;61.30;;;;;;5072755;28;20443;-57
2022/03/13 10:50:58;;;;;;;9.13;6.47;;;9.30;60.00;;;;;;5088645;28;20431;-57
2022/03/13 10:53:25;;;;;;;8.57;6.18;;;9.60;60.20;;;;;;5065928;28;20417;-56
2022/03/13 10:56:04;;;;;;;6.77;5.80;;;9.80;59.70;;;;;;5064492;28;20466;-56
2022/03/13 10:58:31;;;;;;;8.20;6.18;;;9.80;57.50;;;;;;5067979;28;20624;-54
2022/03/13 11:01:05;;;;;;;8.70;6.45;;;10.10;58.50;;;;;;5068880;28;20677;-53
2022/03/13 11:03:33;;;;;;;8.07;5.93;;;10.10;57.80;;;;;;5070513;28;20489;-54
2022/03/13 11:05:59;;;;;;;7.47;6.30;;;10.50;59.00;;;;;;5071131;28;20497;-57
2022/03/13 11:08:26;;;;;;;7.40;6.03;;;10.80;60.30;;;;;;5087224;28;21069;-54
2022/03/13 11:10:52;;;;;;;8.68;6.40;;;11.00;61.20;;;;;;5089184;28;20401;-56
2022/03/13 11:13:21;;;;;;;9.13;6.57;;;11.20;61.40;;;;;;5070750;28;20480;-51
2022/03/13 11:15:47;;;;;;;8.65;6.63;;;11.30;60.40;;;;;;5069796;28;20474;-53
2022/03/13 11:18:17;;;;;;;8.73;6.60;;;11.50;62.40;;;;;;5069085;28;20410;-56
2022/03/13 11:20:43;;;;;;;8.00;6.63;;;11.80;62.70;;;;;;5088244;28;20695;-57
2022/03/13 11:23:09;;;;;;;8.75;7.13;;;11.90;60.20;;;;;;5070162;28;20631;-54
2022/03/13 11:25:35;;;;;;;7.72;6.22;;;11.90;59.50;;;;;;5069697;28;20429;-55
2022/03/13 11:28:01;;;;;;;7.88;6.47;;;11.90;60.50;;;;;;5068000;28;20374;-55
2022/03/13 11:30:35;;;;;;;9.95;6.80;;;12.30;61.90;;;;;;5067954;28;20409;-55
2022/03/13 11:33:02;;;;;;;10.37;6.63;;;12.30;59.70;;;;;;5068991;28;20464;-53
2022/03/13 11:35:30;;;;;;;6.50;5.90;;;12.20;59.10;;;;;;5086032;28;20382;-55
2022/03/13 11:38:17;;;;;;;8.07;6.20;;;12.50;61.70;;;;;;5067130;28;20385;-56
2022/03/13 11:40:43;;;;;;;8.43;6.38;;;12.80;61.70;;;;;;5069776;28;20535;-52
2022/03/13 11:43:12;;;;;;;7.22;6.13;;;13.10;60.40;;;;;;5067828;28;20409;-52
2022/03/13 11:45:47;;;;;;;8.13;6.30;;;13.10;58.30;;;;;;5063799;28;20410;-55
2022/03/13 11:48:14;;;;;;;7.90;6.60;;;13.00;58.30;;;;;;5066784;28;20473;-57
2022/03/13 11:50:54;;;;;;;8.93;6.53;;;13.20;59.00;;;;;;5066310;28;20456;-54
2022/03/13 11:53:21;;;;;;;10.32;6.35;;;13.00;57.30;;;;;;5065213;28;20849;-54
2022/03/13 11:56:02;;;;;;;8.25;6.03;;;13.20;67.50;;;;;;5063574;28;20382;-55
2022/03/13 11:58:48;;;;;;;6.90;5.60;;;13.40;66.40;;;;;;5060509;28;20665;-55
2022/03/13 12:01:20;;;;;;;7.43;6.27;;;13.80;66.80;;;;;;5060256;28;20654;-55
2022/03/13 12:04:01;;;;;;;8.43;6.70;;;13.80;58.60;;;;;;5061037;28;20393;-53
2022/03/13 12:06:48;;;;;;;8.18;6.88;;;13.80;57.60;;;;;;5062863;28;20397;-54
2022/03/13 12:09:19;;;;;;;7.17;6.47;;;13.90;57.00;;;;;;5082170;28;20370;-56
2022/03/13 12:11:52;;;;;;;9.98;6.72;;;14.20;57.40;;;;;;5072452;28;20522;-54
2022/03/13 12:14:19;;;;;;;8.20;7.20;;;14.20;55.90;;;;;;5090581;28;20367;-54
2022/03/13 12:16:46;;;;;;;10.10;7.50;;;14.20;55.90;;;;;;5073359;28;20497;-52
2022/03/13 12:19:15;;;;;;;7.68;6.43;;;14.30;56.70;;;;;;5072051;28;20439;-55
2022/03/13 12:21:47;;;;;;;7.32;5.63;;;14.50;56.90;;;;;;5072007;28;20395;-57
2022/03/13 12:24:19;;;;;;;6.80;6.10;;;14.70;56.30;;;;;;5072543;28;20944;-57
2022/03/13 12:26:52;;;;;;;7.80;5.63;;;14.90;56.30;;;;;;5074711;28;20427;-56
2022/03/13 12:29:19;;;;;;;6.97;5.72;;;15.30;56.30;;;;;;5074385;28;20374;-55
2022/03/13 12:31:48;;;;;;;8.70;5.95;;;15.60;56.40;;;;;;5074438;28;20393;-53
2022/03/13 12:34:23;;;;;;;6.28;5.68;;;15.70;55.20;;;;;;5072534;28;20382;-54
2022/03/13 12:36:49;;;;;;;7.72;6.25;;;15.70;54.00;;;;;;5066309;28;20895;-57
2022/03/13 12:39:16;;;;;;;6.70;6.00;;;15.90;54.70;;;;;;5066564;28;20386;-55
2022/03/13 12:41:43;;;;;;;9.00;6.03;;;15.80;54.50;;;;;;5067122;28;20595;-55
2022/03/13 12:44:12;;;;;;;7.55;6.10;;;15.80;54.10;;;;;;5085658;28;20374;-55
2022/03/13 12:46:38;;;;;;;8.40;6.55;;;15.80;53.20;;;;;;5068082;28;20422;-54
2022/03/13 12:49:10;;;;;;;7.65;5.80;;;15.60;53.40;;;;;;5068834;28;20710;-57
2022/03/13 12:51:44;;;;;;;9.13;5.78;;;15.90;53.30;;;;;;5086802;28;20451;-55